sensor_id;sensor_type;location;lat;lon;timestamp;temperature;humidity
12060;DHT22;6091;51.432;6.880;2023-07-20T00:02:19;28.00;39.70
12060;DHT22;6091;51.432;6.880;2023-07-20T00:04:46;28.00;39.70
12060;DHT22;6091;51.432;6.880;2023-07-20T00:07:14;28.00;39.70
12060;DHT22;6091;51.432;6.880;2023-07-20T00:09:41;28.00;39.80
12060;DHT22;6091;51.432;6.880;2023-07-20T00:12:08;28.00;39.80
12060;DHT22;6091;51.432;6.880;2023-07-20T00:14:35;28.00;39.80
12060;DHT22;6091;51.432;6.880;2023-07-20T00:17:02;28.00;39.80
12060;DHT22;6091;51.432;6.880;2023-07-20T00:19:30;28.00;39.80
12060;DHT22;6091;51.432;6.880;2023-07-20T00:21:58;28.00;39.90
12060;DHT22;6091;51.432;6.880;2023-07-20T00:24:26;28.00;39.90
12060;DHT22;6091;51.432;6.880;2023-07-20T00:26:53;28.00;39.80
12060;DHT22;6091;51.432;6.880;2023-07-20T00:29:20;28.00;39.90
12060;DHT22;6091;51.432;6.880;2023-07-20T00:31:47;28.00;39.90
12060;DHT22;6091;51.432;6.880;2023-07-20T00:34:17;28.00;39.90
12060;DHT22;6091;51.432;6.880;2023-07-20T00:36:44;28.00;39.90
12060;DHT22;6091;51.432;6.880;2023-07-20T00:39:14;28.00;39.90
12060;DHT22;6091;51.432;6.880;2023-07-20T00:41:42;28.00;40.00
12060;DHT22;6091;51.432;6.880;2023-07-20T00:44:09;28.00;40.00
12060;DHT22;6091;51.432;6.880;2023-07-20T00:46:36;28.00;40.00
12060;DHT22;6091;51.432;6.880;2023-07-20T00:49:03;28.00;40.00
12060;DHT22;6091;51.432;6.880;2023-07-20T00:51:31;28.00;40.10
12060;DHT22;6091;51.432;6.880;2023-07-20T00:53:58;27.90;40.00
12060;DHT22;6091;51.432;6.880;2023-07-20T00:56:25;28.00;40.10
12060;DHT22;6091;51.432;6.880;2023-07-20T00:58:53;27.90;40.00
12060;DHT22;6091;51.432;6.880;2023-07-20T01:01:21;28.00;40.10
12060;DHT22;6091;51.432;6.880;2023-07-20T01:03:49;27.90;40.10
12060;DHT22;6091;51.432;6.880;2023-07-20T01:07:06;28.00;40.20
12060;DHT22;6091;51.432;6.880;2023-07-20T01:15:07;28.00;40.30
12060;DHT22;6091;51.432;6.880;2023-07-20T01:17:35;28.00;40.20
12060;DHT22;6091;51.432;6.880;2023-07-20T01:20:03;27.90;40.10
12060;DHT22;6091;51.432;6.880;2023-07-20T01:31:25;27.90;40.40
12060;DHT22;6091;51.432;6.880;2023-07-20T01:33:57;27.90;40.40
12060;DHT22;6091;51.432;6.880;2023-07-20T01:36:28;27.90;40.30
12060;DHT22;6091;51.432;6.880;2023-07-20T01:38:57;27.90;40.40
12060;DHT22;6091;51.432;6.880;2023-07-20T01:41:25;27.90;40.50
12060;DHT22;6091;51.432;6.880;2023-07-20T01:43:52;27.80;40.40
12060;DHT22;6091;51.432;6.880;2023-07-20T01:46:19;27.90;40.50
12060;DHT22;6091;51.432;6.880;2023-07-20T01:48:49;27.80;40.40
12060;DHT22;6091;51.432;6.880;2023-07-20T01:51:17;27.80;40.50
12060;DHT22;6091;51.432;6.880;2023-07-20T01:53:44;27.80;40.60
12060;DHT22;6091;51.432;6.880;2023-07-20T01:56:11;27.80;40.50
12060;DHT22;6091;51.432;6.880;2023-07-20T01:58:38;27.80;40.60
12060;DHT22;6091;51.432;6.880;2023-07-20T02:01:06;27.80;40.70
12060;DHT22;6091;51.432;6.880;2023-07-20T02:03:33;27.80;40.70
12060;DHT22;6091;51.432;6.880;2023-07-20T02:06:00;27.70;40.70
12060;DHT22;6091;51.432;6.880;2023-07-20T02:08:27;27.80;40.70
12060;DHT22;6091;51.432;6.880;2023-07-20T02:10:54;27.80;40.80
12060;DHT22;6091;51.432;6.880;2023-07-20T02:13:21;27.80;40.80
12060;DHT22;6091;51.432;6.880;2023-07-20T02:15:48;27.20;40.50
12060;DHT22;6091;51.432;6.880;2023-07-20T02:18:16;28.20;41.20
12060;DHT22;6091;51.432;6.880;2023-07-20T02:20:43;27.80;41.00
12060;DHT22;6091;51.432;6.880;2023-07-20T02:23:10;27.70;40.90
12060;DHT22;6091;51.432;6.880;2023-07-20T02:25:38;27.70;41.00
12060;DHT22;6091;51.432;6.880;2023-07-20T02:28:08;27.70;41.00
12060;DHT22;6091;51.432;6.880;2023-07-20T02:30:38;27.70;41.10
12060;DHT22;6091;51.432;6.880;2023-07-20T02:33:06;27.70;41.20
12060;DHT22;6091;51.432;6.880;2023-07-20T02:35:35;27.70;41.10
12060;DHT22;6091;51.432;6.880;2023-07-20T02:38:02;27.70;41.20
12060;DHT22;6091;51.432;6.880;2023-07-20T02:40:30;27.70;41.20
12060;DHT22;6091;51.432;6.880;2023-07-20T02:42:56;28.00;41.40
12060;DHT22;6091;51.432;6.880;2023-07-20T02:45:24;27.70;41.30
12060;DHT22;6091;51.432;6.880;2023-07-20T02:47:51;27.70;41.40
12060;DHT22;6091;51.432;6.880;2023-07-20T02:50:18;27.70;41.50
12060;DHT22;6091;51.432;6.880;2023-07-20T02:52:45;27.70;41.40
12060;DHT22;6091;51.432;6.880;2023-07-20T02:55:12;27.70;41.50
12060;DHT22;6091;51.432;6.880;2023-07-20T02:57:39;27.70;41.50
12060;DHT22;6091;51.432;6.880;2023-07-20T03:00:07;27.60;41.50
12060;DHT22;6091;51.432;6.880;2023-07-20T03:02:34;27.60;41.50
12060;DHT22;6091;51.432;6.880;2023-07-20T03:05:02;27.60;41.60
12060;DHT22;6091;51.432;6.880;2023-07-20T03:07:35;27.60;41.70
12060;DHT22;6091;51.432;6.880;2023-07-20T03:10:02;27.60;41.70
12060;DHT22;6091;51.432;6.880;2023-07-20T03:12:30;27.60;41.70
12060;DHT22;6091;51.432;6.880;2023-07-20T03:14:57;27.60;41.70
12060;DHT22;6091;51.432;6.880;2023-07-20T03:17:24;27.60;41.70
12060;DHT22;6091;51.432;6.880;2023-07-20T03:19:51;27.60;41.80
12060;DHT22;6091;51.432;6.880;2023-07-20T03:22:18;27.60;41.80
12060;DHT22;6091;51.432;6.880;2023-07-20T03:24:45;27.60;41.70
12060;DHT22;6091;51.432;6.880;2023-07-20T03:27:12;27.60;41.70
12060;DHT22;6091;51.432;6.880;2023-07-20T03:29:39;27.60;41.80
12060;DHT22;6091;51.432;6.880;2023-07-20T03:32:07;27.60;41.80
12060;DHT22;6091;51.432;6.880;2023-07-20T03:34:34;27.60;41.80
12060;DHT22;6091;51.432;6.880;2023-07-20T03:37:01;27.60;41.80
12060;DHT22;6091;51.432;6.880;2023-07-20T03:39:31;27.60;41.90
12060;DHT22;6091;51.432;6.880;2023-07-20T03:41:58;27.60;41.90
12060;DHT22;6091;51.432;6.880;2023-07-20T03:44:25;27.60;41.90
12060;DHT22;6091;51.432;6.880;2023-07-20T03:46:53;27.60;42.00
12060;DHT22;6091;51.432;6.880;2023-07-20T03:49:20;27.60;42.00
12060;DHT22;6091;51.432;6.880;2023-07-20T03:51:47;27.50;42.50
12060;DHT22;6091;51.432;6.880;2023-07-20T03:54:14;27.60;42.10
12060;DHT22;6091;51.432;6.880;2023-07-20T03:56:41;27.60;42.00
12060;DHT22;6091;51.432;6.880;2023-07-20T03:59:08;27.50;41.90
12060;DHT22;6091;51.432;6.880;2023-07-20T04:01:35;27.60;42.10
12060;DHT22;6091;51.432;6.880;2023-07-20T04:04:08;27.50;42.00
12060;DHT22;6091;51.432;6.880;2023-07-20T04:06:35;27.60;42.20
12060;DHT22;6091;51.432;6.880;2023-07-20T04:09:03;27.50;42.00
12060;DHT22;6091;51.432;6.880;2023-07-20T04:11:32;27.50;42.10
12060;DHT22;6091;51.432;6.880;2023-07-20T04:13:59;27.50;42.10
12060;DHT22;6091;51.432;6.880;2023-07-20T04:16:26;27.60;42.20
12060;DHT22;6091;51.432;6.880;2023-07-20T04:18:57;27.50;42.10
12060;DHT22;6091;51.432;6.880;2023-07-20T04:21:28;27.50;42.30
12060;DHT22;6091;51.432;6.880;2023-07-20T04:23:55;27.50;42.30
12060;DHT22;6091;51.432;6.880;2023-07-20T04:26:22;27.50;42.20
12060;DHT22;6091;51.432;6.880;2023-07-20T04:28:49;27.50;42.30
12060;DHT22;6091;51.432;6.880;2023-07-20T04:31:17;27.50;42.30
12060;DHT22;6091;51.432;6.880;2023-07-20T04:33:44;27.50;42.40
12060;DHT22;6091;51.432;6.880;2023-07-20T04:36:11;27.50;42.40
12060;DHT22;6091;51.432;6.880;2023-07-20T04:38:39;27.50;42.40
12060;DHT22;6091;51.432;6.880;2023-07-20T04:41:06;27.50;42.40
12060;DHT22;6091;51.432;6.880;2023-07-20T04:43:33;27.50;43.10
12060;DHT22;6091;51.432;6.880;2023-07-20T04:46:00;27.50;42.40
12060;DHT22;6091;51.432;6.880;2023-07-20T04:48:27;27.50;42.40
12060;DHT22;6091;51.432;6.880;2023-07-20T04:50:54;27.50;42.50
12060;DHT22;6091;51.432;6.880;2023-07-20T04:53:22;27.50;42.40
12060;DHT22;6091;51.432;6.880;2023-07-20T04:55:50;27.50;42.50
12060;DHT22;6091;51.432;6.880;2023-07-20T04:58:19;27.50;42.50
12060;DHT22;6091;51.432;6.880;2023-07-20T05:00:51;27.50;42.50
12060;DHT22;6091;51.432;6.880;2023-07-20T05:03:18;27.50;42.60
12060;DHT22;6091;51.432;6.880;2023-07-20T05:05:47;27.50;42.50
12060;DHT22;6091;51.432;6.880;2023-07-20T05:08:16;27.50;42.60
12060;DHT22;6091;51.432;6.880;2023-07-20T05:10:43;27.50;42.60
12060;DHT22;6091;51.432;6.880;2023-07-20T05:13:10;27.50;42.60
12060;DHT22;6091;51.432;6.880;2023-07-20T05:15:38;27.50;42.60
12060;DHT22;6091;51.432;6.880;2023-07-20T05:18:05;27.50;42.70
12060;DHT22;6091;51.432;6.880;2023-07-20T05:20:32;27.50;42.70
12060;DHT22;6091;51.432;6.880;2023-07-20T05:23:01;27.50;42.70
12060;DHT22;6091;51.432;6.880;2023-07-20T05:25:28;27.50;42.80
12060;DHT22;6091;51.432;6.880;2023-07-20T05:27:57;27.50;42.80
12060;DHT22;6091;51.432;6.880;2023-07-20T05:30:24;27.50;42.80
12060;DHT22;6091;51.432;6.880;2023-07-20T05:32:51;27.50;42.80
12060;DHT22;6091;51.432;6.880;2023-07-20T05:35:19;27.50;42.80
12060;DHT22;6091;51.432;6.880;2023-07-20T05:37:47;27.50;42.70
12060;DHT22;6091;51.432;6.880;2023-07-20T05:40:14;27.50;42.70
12060;DHT22;6091;51.432;6.880;2023-07-20T05:42:46;27.50;42.70
12060;DHT22;6091;51.432;6.880;2023-07-20T05:45:14;27.50;42.70
12060;DHT22;6091;51.432;6.880;2023-07-20T05:47:42;27.50;42.70
12060;DHT22;6091;51.432;6.880;2023-07-20T05:50:10;27.50;42.70
12060;DHT22;6091;51.432;6.880;2023-07-20T05:52:37;27.50;42.80
12060;DHT22;6091;51.432;6.880;2023-07-20T05:55:06;27.50;42.70
12060;DHT22;6091;51.432;6.880;2023-07-20T05:57:34;27.50;42.70
12060;DHT22;6091;51.432;6.880;2023-07-20T06:00:02;27.50;42.70
12060;DHT22;6091;51.432;6.880;2023-07-20T06:02:30;27.50;42.80
12060;DHT22;6091;51.432;6.880;2023-07-20T06:04:59;27.50;42.80
12060;DHT22;6091;51.432;6.880;2023-07-20T06:07:26;27.50;42.90
12060;DHT22;6091;51.432;6.880;2023-07-20T06:09:53;27.50;43.00
12060;DHT22;6091;51.432;6.880;2023-07-20T06:12:21;27.50;43.10
12060;DHT22;6091;51.432;6.880;2023-07-20T06:14:48;27.50;43.20
12060;DHT22;6091;51.432;6.880;2023-07-20T06:17:15;27.80;43.40
12060;DHT22;6091;51.432;6.880;2023-07-20T06:19:43;27.50;43.20
12060;DHT22;6091;51.432;6.880;2023-07-20T06:22:10;27.50;43.40
12060;DHT22;6091;51.432;6.880;2023-07-20T06:24:37;27.50;43.40
12060;DHT22;6091;51.432;6.880;2023-07-20T06:27:05;27.50;43.40
12060;DHT22;6091;51.432;6.880;2023-07-20T06:29:32;27.50;43.30
12060;DHT22;6091;51.432;6.880;2023-07-20T06:31:59;27.50;43.30
12060;DHT22;6091;51.432;6.880;2023-07-20T06:34:26;27.60;43.40
12060;DHT22;6091;51.432;6.880;2023-07-20T06:37:04;27.50;43.30
12060;DHT22;6091;51.432;6.880;2023-07-20T06:39:31;27.50;43.40
12060;DHT22;6091;51.432;6.880;2023-07-20T06:42:01;27.60;43.40
12060;DHT22;6091;51.432;6.880;2023-07-20T06:44:28;27.60;43.40
12060;DHT22;6091;51.432;6.880;2023-07-20T06:46:55;27.50;43.40
12060;DHT22;6091;51.432;6.880;2023-07-20T06:49:26;27.50;43.40
12060;DHT22;6091;51.432;6.880;2023-07-20T06:51:54;27.60;43.50
12060;DHT22;6091;51.432;6.880;2023-07-20T06:54:22;27.50;43.30
12060;DHT22;6091;51.432;6.880;2023-07-20T06:56:50;27.50;43.40
12060;DHT22;6091;51.432;6.880;2023-07-20T06:59:20;27.50;43.50
12060;DHT22;6091;51.432;6.880;2023-07-20T07:01:50;27.50;43.50
12060;DHT22;6091;51.432;6.880;2023-07-20T07:04:17;27.50;43.50
12060;DHT22;6091;51.432;6.880;2023-07-20T07:06:44;27.50;43.60
12060;DHT22;6091;51.432;6.880;2023-07-20T07:09:11;27.50;43.70
12060;DHT22;6091;51.432;6.880;2023-07-20T07:11:38;27.50;43.80
12060;DHT22;6091;51.432;6.880;2023-07-20T07:14:05;27.60;43.90
12060;DHT22;6091;51.432;6.880;2023-07-20T07:16:34;27.60;43.80
12060;DHT22;6091;51.432;6.880;2023-07-20T07:19:05;27.60;43.80
12060;DHT22;6091;51.432;6.880;2023-07-20T07:21:32;27.60;43.70
12060;DHT22;6091;51.432;6.880;2023-07-20T07:23:59;27.70;43.80
12060;DHT22;6091;51.432;6.880;2023-07-20T07:26:26;27.70;43.70
12060;DHT22;6091;51.432;6.880;2023-07-20T07:28:53;27.80;43.80
12060;DHT22;6091;51.432;6.880;2023-07-20T07:31:20;26.80;43.10
12060;DHT22;6091;51.432;6.880;2023-07-20T07:33:47;27.90;43.70
12060;DHT22;6091;51.432;6.880;2023-07-20T07:36:14;28.00;43.60
12060;DHT22;6091;51.432;6.880;2023-07-20T07:38:42;28.00;43.60
12060;DHT22;6091;51.432;6.880;2023-07-20T07:41:13;28.10;43.40
12060;DHT22;6091;51.432;6.880;2023-07-20T07:43:40;28.10;43.40
12060;DHT22;6091;51.432;6.880;2023-07-20T07:46:07;28.20;43.40
12060;DHT22;6091;51.432;6.880;2023-07-20T07:48:34;28.20;43.30
12060;DHT22;6091;51.432;6.880;2023-07-20T07:51:01;28.30;43.20
12060;DHT22;6091;51.432;6.880;2023-07-20T07:53:28;28.30;43.00
12060;DHT22;6091;51.432;6.880;2023-07-20T07:55:56;28.30;42.90
12060;DHT22;6091;51.432;6.880;2023-07-20T07:58:23;28.40;42.80
12060;DHT22;6091;51.432;6.880;2023-07-20T08:00:50;28.40;42.60
12060;DHT22;6091;51.432;6.880;2023-07-20T08:03:17;28.50;42.60
12060;DHT22;6091;51.432;6.880;2023-07-20T08:05:45;28.50;42.60
12060;DHT22;6091;51.432;6.880;2023-07-20T08:08:13;28.50;42.50
12060;DHT22;6091;51.432;6.880;2023-07-20T08:10:40;28.50;42.40
12060;DHT22;6091;51.432;6.880;2023-07-20T08:13:08;28.50;42.40
12060;DHT22;6091;51.432;6.880;2023-07-20T08:15:35;28.60;42.30
12060;DHT22;6091;51.432;6.880;2023-07-20T08:18:03;28.60;42.10
12060;DHT22;6091;51.432;6.880;2023-07-20T08:20:30;28.60;42.20
12060;DHT22;6091;51.432;6.880;2023-07-20T08:22:58;28.60;42.20
12060;DHT22;6091;51.432;6.880;2023-07-20T08:25:26;28.60;42.10
12060;DHT22;6091;51.432;6.880;2023-07-20T08:27:53;28.60;42.00
12060;DHT22;6091;51.432;6.880;2023-07-20T08:30:21;28.60;41.90
12060;DHT22;6091;51.432;6.880;2023-07-20T08:32:50;28.60;41.70
12060;DHT22;6091;51.432;6.880;2023-07-20T08:35:17;28.70;41.60
12060;DHT22;6091;51.432;6.880;2023-07-20T08:37:48;28.70;41.70
12060;DHT22;6091;51.432;6.880;2023-07-20T08:40:15;28.70;41.60
12060;DHT22;6091;51.432;6.880;2023-07-20T08:42:42;28.70;41.60
12060;DHT22;6091;51.432;6.880;2023-07-20T08:45:13;28.70;41.30
12060;DHT22;6091;51.432;6.880;2023-07-20T08:47:42;28.70;41.30
12060;DHT22;6091;51.432;6.880;2023-07-20T08:50:12;28.70;41.40
12060;DHT22;6091;51.432;6.880;2023-07-20T08:52:40;28.80;41.40
12060;DHT22;6091;51.432;6.880;2023-07-20T08:55:08;28.80;41.30
12060;DHT22;6091;51.432;6.880;2023-07-20T08:57:36;28.80;41.10
12060;DHT22;6091;51.432;6.880;2023-07-20T09:00:07;28.70;40.80
12060;DHT22;6091;51.432;6.880;2023-07-20T09:02:40;28.70;40.80
12060;DHT22;6091;51.432;6.880;2023-07-20T09:05:09;28.70;40.70
12060;DHT22;6091;51.432;6.880;2023-07-20T09:07:37;28.60;40.70
12060;DHT22;6091;51.432;6.880;2023-07-20T09:10:06;28.50;40.70
12060;DHT22;6091;51.432;6.880;2023-07-20T09:12:41;28.50;40.60
12060;DHT22;6091;51.432;6.880;2023-07-20T09:15:11;28.50;40.50
12060;DHT22;6091;51.432;6.880;2023-07-20T09:17:38;28.40;40.70
12060;DHT22;6091;51.432;6.880;2023-07-20T09:20:08;28.40;40.90
12060;DHT22;6091;51.432;6.880;2023-07-20T09:22:38;28.40;40.90
12060;DHT22;6091;51.432;6.880;2023-07-20T09:25:16;28.40;40.90
12060;DHT22;6091;51.432;6.880;2023-07-20T09:27:46;28.40;40.60
12060;DHT22;6091;51.432;6.880;2023-07-20T09:30:15;28.50;40.60
12060;DHT22;6091;51.432;6.880;2023-07-20T09:32:48;28.40;40.50
12060;DHT22;6091;51.432;6.880;2023-07-20T09:35:21;28.40;40.20
12060;DHT22;6091;51.432;6.880;2023-07-20T09:40:28;28.40;40.30
12060;DHT22;6091;51.432;6.880;2023-07-20T09:42:59;28.40;40.20
12060;DHT22;6091;51.432;6.880;2023-07-20T09:45:33;28.40;40.90
12060;DHT22;6091;51.432;6.880;2023-07-20T09:48:07;28.30;40.10
12060;DHT22;6091;51.432;6.880;2023-07-20T09:50:43;28.30;40.00
12060;DHT22;6091;51.432;6.880;2023-07-20T09:53:16;28.30;40.00
12060;DHT22;6091;51.432;6.880;2023-07-20T09:55:45;28.30;40.30
12060;DHT22;6091;51.432;6.880;2023-07-20T09:58:17;28.30;40.30
12060;DHT22;6091;51.432;6.880;2023-07-20T10:00:45;28.30;40.20
12060;DHT22;6091;51.432;6.880;2023-07-20T10:03:22;28.30;40.00
12060;DHT22;6091;51.432;6.880;2023-07-20T10:05:58;28.30;39.80
12060;DHT22;6091;51.432;6.880;2023-07-20T10:08:30;28.30;39.70
12060;DHT22;6091;51.432;6.880;2023-07-20T10:11:04;28.30;39.40
12060;DHT22;6091;51.432;6.880;2023-07-20T10:13:37;28.30;39.30
12060;DHT22;6091;51.432;6.880;2023-07-20T10:16:14;28.30;38.90
12060;DHT22;6091;51.432;6.880;2023-07-20T10:19:16;28.30;38.90
12060;DHT22;6091;51.432;6.880;2023-07-20T10:21:57;28.30;38.50
12060;DHT22;6091;51.432;6.880;2023-07-20T10:24:31;28.30;39.10
12060;DHT22;6091;51.432;6.880;2023-07-20T10:27:01;28.30;39.30
12060;DHT22;6091;51.432;6.880;2023-07-20T10:29:29;28.30;39.50
12060;DHT22;6091;51.432;6.880;2023-07-20T10:31:57;28.40;39.50
12060;DHT22;6091;51.432;6.880;2023-07-20T10:34:25;28.40;39.40
12060;DHT22;6091;51.432;6.880;2023-07-20T10:36:52;28.50;39.40
12060;DHT22;6091;51.432;6.880;2023-07-20T10:39:30;28.50;39.10
12060;DHT22;6091;51.432;6.880;2023-07-20T10:42:09;28.60;38.80
12060;DHT22;6091;51.432;6.880;2023-07-20T10:44:37;28.20;38.50
12060;DHT22;6091;51.432;6.880;2023-07-20T10:47:09;28.60;38.80
12060;DHT22;6091;51.432;6.880;2023-07-20T10:49:58;28.70;38.60
12060;DHT22;6091;51.432;6.880;2023-07-20T10:52:37;28.70;38.10
12060;DHT22;6091;51.432;6.880;2023-07-20T10:55:19;28.70;38.00
12060;DHT22;6091;51.432;6.880;2023-07-20T10:58:11;28.80;37.80
12060;DHT22;6091;51.432;6.880;2023-07-20T11:01:04;28.80;37.80
12060;DHT22;6091;51.432;6.880;2023-07-20T11:03:40;29.00;38.10
12060;DHT22;6091;51.432;6.880;2023-07-20T11:09:02;29.00;38.10
12060;DHT22;6091;51.432;6.880;2023-07-20T11:11:47;29.00;38.00
12060;DHT22;6091;51.432;6.880;2023-07-20T11:14:22;29.10;38.40
12060;DHT22;6091;51.432;6.880;2023-07-20T11:16:52;29.20;38.00
12060;DHT22;6091;51.432;6.880;2023-07-20T11:21:56;29.20;37.40
12060;DHT22;6091;51.432;6.880;2023-07-20T11:24:30;29.30;37.50
12060;DHT22;6091;51.432;6.880;2023-07-20T11:26:59;29.30;37.70
12060;DHT22;6091;51.432;6.880;2023-07-20T11:29:28;29.40;37.90
12060;DHT22;6091;51.432;6.880;2023-07-20T11:32:00;29.40;37.60
12060;DHT22;6091;51.432;6.880;2023-07-20T11:34:32;29.50;37.40
12060;DHT22;6091;51.432;6.880;2023-07-20T11:37:01;29.60;37.30
12060;DHT22;6091;51.432;6.880;2023-07-20T11:39:33;29.70;37.50
12060;DHT22;6091;51.432;6.880;2023-07-20T11:42:01;29.80;37.30
12060;DHT22;6091;51.432;6.880;2023-07-20T11:44:28;29.90;37.40
12060;DHT22;6091;51.432;6.880;2023-07-20T11:49:39;30.10;36.70
12060;DHT22;6091;51.432;6.880;2023-07-20T11:52:10;30.20;36.80
12060;DHT22;6091;51.432;6.880;2023-07-20T11:54:40;30.30;37.00
12060;DHT22;6091;51.432;6.880;2023-07-20T11:57:18;30.30;36.30
12060;DHT22;6091;51.432;6.880;2023-07-20T12:00:00;30.30;35.90
12060;DHT22;6091;51.432;6.880;2023-07-20T12:02:32;30.40;35.30
12060;DHT22;6091;51.432;6.880;2023-07-20T12:05:02;30.30;35.60
12060;DHT22;6091;51.432;6.880;2023-07-20T12:07:36;30.30;35.50
12060;DHT22;6091;51.432;6.880;2023-07-20T12:10:11;30.30;35.60
12060;DHT22;6091;51.432;6.880;2023-07-20T12:12:40;30.40;35.30
12060;DHT22;6091;51.432;6.880;2023-07-20T12:15:27;30.40;35.60
12060;DHT22;6091;51.432;6.880;2023-07-20T12:17:59;30.60;35.40
12060;DHT22;6091;51.432;6.880;2023-07-20T12:23:03;30.60;35.10
12060;DHT22;6091;51.432;6.880;2023-07-20T12:25:46;30.60;35.00
12060;DHT22;6091;51.432;6.880;2023-07-20T12:28:16;30.60;34.60
12060;DHT22;6091;51.432;6.880;2023-07-20T12:30:46;30.60;35.10
12060;DHT22;6091;51.432;6.880;2023-07-20T12:33:14;30.50;34.30
12060;DHT22;6091;51.432;6.880;2023-07-20T12:35:43;30.40;34.30
12060;DHT22;6091;51.432;6.880;2023-07-20T12:38:10;30.30;34.20
12060;DHT22;6091;51.432;6.880;2023-07-20T12:40:37;30.30;34.10
12060;DHT22;6091;51.432;6.880;2023-07-20T12:43:04;30.20;34.00
12060;DHT22;6091;51.432;6.880;2023-07-20T12:45:33;30.10;34.20
12060;DHT22;6091;51.432;6.880;2023-07-20T12:48:00;30.00;34.10
12060;DHT22;6091;51.432;6.880;2023-07-20T12:50:27;30.00;34.30
12060;DHT22;6091;51.432;6.880;2023-07-20T12:52:55;29.50;34.60
12060;DHT22;6091;51.432;6.880;2023-07-20T12:55:22;30.10;35.40
12060;DHT22;6091;51.432;6.880;2023-07-20T12:57:49;30.30;35.70
12060;DHT22;6091;51.432;6.880;2023-07-20T13:00:16;30.50;35.20
12060;DHT22;6091;51.432;6.880;2023-07-20T13:02:44;30.60;34.70
12060;DHT22;6091;51.432;6.880;2023-07-20T13:05:11;30.70;34.60
12060;DHT22;6091;51.432;6.880;2023-07-20T13:07:38;30.80;34.40
12060;DHT22;6091;51.432;6.880;2023-07-20T13:10:11;30.80;34.60
12060;DHT22;6091;51.432;6.880;2023-07-20T13:12:39;30.90;34.40
12060;DHT22;6091;51.432;6.880;2023-07-20T13:15:07;31.00;34.40
12060;DHT22;6091;51.432;6.880;2023-07-20T13:17:39;31.00;34.10
12060;DHT22;6091;51.432;6.880;2023-07-20T13:20:08;31.00;33.70
12060;DHT22;6091;51.432;6.880;2023-07-20T13:22:38;31.10;33.60
12060;DHT22;6091;51.432;6.880;2023-07-20T13:25:06;31.00;33.20
12060;DHT22;6091;51.432;6.880;2023-07-20T13:27:34;30.90;33.50
12060;DHT22;6091;51.432;6.880;2023-07-20T13:30:04;30.90;33.70
12060;DHT22;6091;51.432;6.880;2023-07-20T13:32:36;30.90;33.80
12060;DHT22;6091;51.432;6.880;2023-07-20T13:35:07;30.90;33.90
12060;DHT22;6091;51.432;6.880;2023-07-20T13:37:34;31.00;34.00
12060;DHT22;6091;51.432;6.880;2023-07-20T13:40:01;31.00;33.90
12060;DHT22;6091;51.432;6.880;2023-07-20T13:42:34;31.00;34.00
12060;DHT22;6091;51.432;6.880;2023-07-20T13:45:01;31.10;33.70
12060;DHT22;6091;51.432;6.880;2023-07-20T13:47:32;31.10;33.70
12060;DHT22;6091;51.432;6.880;2023-07-20T13:50:02;31.10;33.50
12060;DHT22;6091;51.432;6.880;2023-07-20T13:52:30;31.10;33.30
12060;DHT22;6091;51.432;6.880;2023-07-20T13:55:00;31.10;33.10
12060;DHT22;6091;51.432;6.880;2023-07-20T13:57:35;31.10;33.10
12060;DHT22;6091;51.432;6.880;2023-07-20T14:00:03;31.00;32.90
12060;DHT22;6091;51.432;6.880;2023-07-20T14:02:36;30.90;32.80
12060;DHT22;6091;51.432;6.880;2023-07-20T14:05:07;30.90;32.70
12060;DHT22;6091;51.432;6.880;2023-07-20T14:07:37;30.80;32.70
12060;DHT22;6091;51.432;6.880;2023-07-20T14:10:05;30.80;32.70
12060;DHT22;6091;51.432;6.880;2023-07-20T14:12:35;30.70;32.50
12060;DHT22;6091;51.432;6.880;2023-07-20T14:15:03;30.60;32.70
12060;DHT22;6091;51.432;6.880;2023-07-20T14:17:31;30.50;32.40
12060;DHT22;6091;51.432;6.880;2023-07-20T14:19:59;30.40;32.60
12060;DHT22;6091;51.432;6.880;2023-07-20T14:22:26;30.40;32.60
12060;DHT22;6091;51.432;6.880;2023-07-20T14:24:53;30.30;32.60
12060;DHT22;6091;51.432;6.880;2023-07-20T14:27:20;30.30;32.60
12060;DHT22;6091;51.432;6.880;2023-07-20T14:29:47;30.30;32.90
12060;DHT22;6091;51.432;6.880;2023-07-20T14:32:15;30.30;32.40
12060;DHT22;6091;51.432;6.880;2023-07-20T14:34:41;30.20;32.40
12060;DHT22;6091;51.432;6.880;2023-07-20T14:37:09;30.20;32.60
12060;DHT22;6091;51.432;6.880;2023-07-20T14:39:36;30.20;32.50
12060;DHT22;6091;51.432;6.880;2023-07-20T14:42:03;30.10;32.40
12060;DHT22;6091;51.432;6.880;2023-07-20T14:44:32;30.10;32.40
12060;DHT22;6091;51.432;6.880;2023-07-20T14:47:00;30.10;32.60
12060;DHT22;6091;51.432;6.880;2023-07-20T14:49:40;30.00;32.50
12060;DHT22;6091;51.432;6.880;2023-07-20T14:52:07;30.00;32.70
12060;DHT22;6091;51.432;6.880;2023-07-20T14:54:37;30.00;32.60
12060;DHT22;6091;51.432;6.880;2023-07-20T14:57:04;30.00;32.50
12060;DHT22;6091;51.432;6.880;2023-07-20T14:59:34;30.00;32.60
12060;DHT22;6091;51.432;6.880;2023-07-20T15:02:01;30.00;32.50
12060;DHT22;6091;51.432;6.880;2023-07-20T15:04:28;30.00;32.50
12060;DHT22;6091;51.432;6.880;2023-07-20T15:06:55;30.00;32.70
12060;DHT22;6091;51.432;6.880;2023-07-20T15:09:23;30.00;32.70
12060;DHT22;6091;51.432;6.880;2023-07-20T15:11:50;30.00;32.80
12060;DHT22;6091;51.432;6.880;2023-07-20T15:14:17;30.00;32.90
12060;DHT22;6091;51.432;6.880;2023-07-20T15:16:44;30.00;33.00
12060;DHT22;6091;51.432;6.880;2023-07-20T15:19:15;30.00;32.90
12060;DHT22;6091;51.432;6.880;2023-07-20T15:21:43;30.00;32.70
12060;DHT22;6091;51.432;6.880;2023-07-20T15:24:10;30.00;32.70
12060;DHT22;6091;51.432;6.880;2023-07-20T15:26:38;30.00;32.80
12060;DHT22;6091;51.432;6.880;2023-07-20T15:29:05;30.00;32.50
12060;DHT22;6091;51.432;6.880;2023-07-20T15:31:32;30.10;32.10
12060;DHT22;6091;51.432;6.880;2023-07-20T15:34:02;30.00;32.50
12060;DHT22;6091;51.432;6.880;2023-07-20T15:36:30;30.00;32.60
12060;DHT22;6091;51.432;6.880;2023-07-20T15:38:57;29.90;32.50
12060;DHT22;6091;51.432;6.880;2023-07-20T15:41:24;30.00;32.60
12060;DHT22;6091;51.432;6.880;2023-07-20T15:43:52;29.90;32.40
12060;DHT22;6091;51.432;6.880;2023-07-20T15:48:46;30.00;32.70
12060;DHT22;6091;51.432;6.880;2023-07-20T15:51:13;30.00;32.70
12060;DHT22;6091;51.432;6.880;2023-07-20T15:53:41;30.00;32.80
12060;DHT22;6091;51.432;6.880;2023-07-20T15:56:08;30.00;32.60
12060;DHT22;6091;51.432;6.880;2023-07-20T15:58:35;30.00;32.60
12060;DHT22;6091;51.432;6.880;2023-07-20T16:01:02;30.00;32.70
12060;DHT22;6091;51.432;6.880;2023-07-20T16:03:29;30.00;32.60
12060;DHT22;6091;51.432;6.880;2023-07-20T16:05:59;30.00;32.60
12060;DHT22;6091;51.432;6.880;2023-07-20T16:08:28;30.00;32.40
12060;DHT22;6091;51.432;6.880;2023-07-20T16:10:55;30.00;32.40
12060;DHT22;6091;51.432;6.880;2023-07-20T16:13:24;30.00;32.30
12060;DHT22;6091;51.432;6.880;2023-07-20T16:15:51;30.00;32.30
12060;DHT22;6091;51.432;6.880;2023-07-20T16:18:19;30.00;32.40
12060;DHT22;6091;51.432;6.880;2023-07-20T16:20:49;30.00;32.30
12060;DHT22;6091;51.432;6.880;2023-07-20T16:23:16;30.00;32.30
12060;DHT22;6091;51.432;6.880;2023-07-20T16:25:47;30.00;32.10
12060;DHT22;6091;51.432;6.880;2023-07-20T16:28:14;30.00;32.20